sensor_id;sensor_type;location;lat;lon;timestamp;P1;durP1;ratioP1;P2;durP2;ratioP2
5811;SDS011;2932;52.400;9.558;2023-02-03T00:01:20;24.23;;;13.77;;
5811;SDS011;2932;52.400;9.558;2023-02-03T00:03:46;22.43;;;14.57;;
5811;SDS011;2932;52.400;9.558;2023-02-03T00:06:12;21.90;;;12.67;;
5811;SDS011;2932;52.400;9.558;2023-02-03T00:08:37;23.80;;;16.27;;
5811;SDS011;2932;52.400;9.558;2023-02-03T00:11:03;22.83;;;14.20;;
5811;SDS011;2932;52.400;9.558;2023-02-03T00:13:29;25.57;;;15.87;;
5811;SDS011;2932;52.400;9.558;2023-02-03T00:15:54;26.33;;;14.97;;
5811;SDS011;2932;52.400;9.558;2023-02-03T00:18:19;28.73;;;16.73;;
5811;SDS011;2932;52.400;9.558;2023-02-03T00:20:45;27.73;;;17.37;;
5811;SDS011;2932;52.400;9.558;2023-02-03T00:23:11;25.47;;;16.03;;
5811;SDS011;2932;52.400;9.558;2023-02-03T00:25:36;30.00;;;17.23;;
5811;SDS011;2932;52.400;9.558;2023-02-03T00:28:03;21.80;;;15.37;;
5811;SDS011;2932;52.400;9.558;2023-02-03T00:30:29;25.93;;;16.20;;
5811;SDS011;2932;52.400;9.558;2023-02-03T00:32:55;27.83;;;16.00;;
5811;SDS011;2932;52.400;9.558;2023-02-03T00:35:20;24.73;;;16.67;;
5811;SDS011;2932;52.400;9.558;2023-02-03T00:37:55;25.27;;;16.47;;
5811;SDS011;2932;52.400;9.558;2023-02-03T00:40:23;26.23;;;16.23;;
5811;SDS011;2932;52.400;9.558;2023-02-03T00:42:50;25.80;;;17.27;;
5811;SDS011;2932;52.400;9.558;2023-02-03T00:45:16;26.80;;;15.10;;
5811;SDS011;2932;52.400;9.558;2023-02-03T00:47:41;22.97;;;15.90;;
5811;SDS011;2932;52.400;9.558;2023-02-03T00:50:07;26.37;;;15.20;;
5811;SDS011;2932;52.400;9.558;2023-02-03T00:52:33;26.93;;;16.30;;
5811;SDS011;2932;52.400;9.558;2023-02-03T00:54:59;26.80;;;15.50;;
5811;SDS011;2932;52.400;9.558;2023-02-03T00:57:24;25.33;;;14.83;;
5811;SDS011;2932;52.400;9.558;2023-02-03T00:59:49;22.93;;;15.23;;
5811;SDS011;2932;52.400;9.558;2023-02-03T01:02:15;16.73;;;11.93;;
5811;SDS011;2932;52.400;9.558;2023-02-03T01:04:41;22.27;;;15.20;;
5811;SDS011;2932;52.400;9.558;2023-02-03T01:07:07;22.47;;;14.33;;
5811;SDS011;2932;52.400;9.558;2023-02-03T01:09:33;24.57;;;15.47;;
5811;SDS011;2932;52.400;9.558;2023-02-03T01:11:59;18.03;;;12.23;;
5811;SDS011;2932;52.400;9.558;2023-02-03T01:14:25;19.27;;;13.10;;
5811;SDS011;2932;52.400;9.558;2023-02-03T01:16:50;15.10;;;10.13;;
5811;SDS011;2932;52.400;9.558;2023-02-03T01:19:16;19.50;;;12.80;;
5811;SDS011;2932;52.400;9.558;2023-02-03T01:21:41;21.33;;;13.37;;
5811;SDS011;2932;52.400;9.558;2023-02-03T01:24:07;19.03;;;11.67;;
5811;SDS011;2932;52.400;9.558;2023-02-03T01:26:33;18.80;;;11.00;;
5811;SDS011;2932;52.400;9.558;2023-02-03T01:28:59;17.53;;;11.10;;
5811;SDS011;2932;52.400;9.558;2023-02-03T01:31:26;18.10;;;11.73;;
5811;SDS011;2932;52.400;9.558;2023-02-03T01:34:05;19.10;;;12.00;;
5811;SDS011;2932;52.400;9.558;2023-02-03T01:36:32;20.77;;;11.20;;
5811;SDS011;2932;52.400;9.558;2023-02-03T01:38:58;13.70;;;10.07;;
5811;SDS011;2932;52.400;9.558;2023-02-03T01:41:27;16.23;;;11.67;;
5811;SDS011;2932;52.400;9.558;2023-02-03T01:43:54;20.20;;;12.17;;
5811;SDS011;2932;52.400;9.558;2023-02-03T01:48:52;16.40;;;9.20;;
5811;SDS011;2932;52.400;9.558;2023-02-03T01:51:22;15.20;;;9.47;;
5811;SDS011;2932;52.400;9.558;2023-02-03T01:53:48;13.20;;;8.90;;
5811;SDS011;2932;52.400;9.558;2023-02-03T01:56:17;18.83;;;10.50;;
5811;SDS011;2932;52.400;9.558;2023-02-03T01:58:42;10.77;;;7.70;;
5811;SDS011;2932;52.400;9.558;2023-02-03T02:01:09;11.50;;;8.23;;
5811;SDS011;2932;52.400;9.558;2023-02-03T02:03:43;15.10;;;10.23;;
5811;SDS011;2932;52.400;9.558;2023-02-03T02:06:12;12.07;;;8.17;;
5811;SDS011;2932;52.400;9.558;2023-02-03T02:08:39;15.47;;;10.27;;
5811;SDS011;2932;52.400;9.558;2023-02-03T02:11:06;13.73;;;9.70;;
5811;SDS011;2932;52.400;9.558;2023-02-03T02:13:32;12.33;;;9.43;;
5811;SDS011;2932;52.400;9.558;2023-02-03T02:18:39;17.43;;;9.17;;
5811;SDS011;2932;52.400;9.558;2023-02-03T02:21:12;11.83;;;8.60;;
5811;SDS011;2932;52.400;9.558;2023-02-03T02:26:35;13.07;;;9.13;;
5811;SDS011;2932;52.400;9.558;2023-02-03T02:32:02;14.93;;;8.27;;
5811;SDS011;2932;52.400;9.558;2023-02-03T02:42:58;14.23;;;9.33;;
5811;SDS011;2932;52.400;9.558;2023-02-03T02:45:36;11.00;;;7.43;;
5811;SDS011;2932;52.400;9.558;2023-02-03T02:48:08;15.70;;;9.70;;
5811;SDS011;2932;52.400;9.558;2023-02-03T02:50:41;20.53;;;9.33;;
5811;SDS011;2932;52.400;9.558;2023-02-03T02:53:09;10.73;;;7.40;;
5811;SDS011;2932;52.400;9.558;2023-02-03T02:55:37;12.50;;;8.80;;
5811;SDS011;2932;52.400;9.558;2023-02-03T02:58:06;12.30;;;7.70;;
5811;SDS011;2932;52.400;9.558;2023-02-03T03:00:35;13.23;;;7.60;;
5811;SDS011;2932;52.400;9.558;2023-02-03T03:03:14;15.00;;;8.93;;
5811;SDS011;2932;52.400;9.558;2023-02-03T03:05:49;13.83;;;8.47;;
5811;SDS011;2932;52.400;9.558;2023-02-03T03:08:19;12.73;;;6.50;;
5811;SDS011;2932;52.400;9.558;2023-02-03T03:10:49;13.30;;;8.73;;
5811;SDS011;2932;52.400;9.558;2023-02-03T03:13:18;9.97;;;7.00;;
5811;SDS011;2932;52.400;9.558;2023-02-03T03:15:49;12.93;;;7.77;;
5811;SDS011;2932;52.400;9.558;2023-02-03T03:18:31;11.63;;;7.20;;
5811;SDS011;2932;52.400;9.558;2023-02-03T03:21:02;13.47;;;8.53;;
5811;SDS011;2932;52.400;9.558;2023-02-03T03:23:35;13.87;;;7.90;;
5811;SDS011;2932;52.400;9.558;2023-02-03T03:26:13;14.27;;;7.27;;
5811;SDS011;2932;52.400;9.558;2023-02-03T03:28:46;11.00;;;6.73;;
5811;SDS011;2932;52.400;9.558;2023-02-03T03:31:14;15.50;;;6.63;;
5811;SDS011;2932;52.400;9.558;2023-02-03T03:33:41;11.97;;;6.20;;
5811;SDS011;2932;52.400;9.558;2023-02-03T03:36:11;10.83;;;6.33;;
5811;SDS011;2932;52.400;9.558;2023-02-03T03:38:40;8.47;;;5.77;;
5811;SDS011;2932;52.400;9.558;2023-02-03T03:41:24;13.50;;;6.33;;
5811;SDS011;2932;52.400;9.558;2023-02-03T03:43:57;9.93;;;6.37;;
5811;SDS011;2932;52.400;9.558;2023-02-03T03:46:28;11.17;;;6.70;;
5811;SDS011;2932;52.400;9.558;2023-02-03T03:49:01;9.43;;;5.40;;
5811;SDS011;2932;52.400;9.558;2023-02-03T03:51:33;7.93;;;5.77;;
5811;SDS011;2932;52.400;9.558;2023-02-03T03:54:06;10.10;;;6.43;;
5811;SDS011;2932;52.400;9.558;2023-02-03T03:56:54;9.33;;;6.20;;
5811;SDS011;2932;52.400;9.558;2023-02-03T03:59:25;7.83;;;5.40;;
5811;SDS011;2932;52.400;9.558;2023-02-03T04:01:55;7.47;;;4.90;;
5811;SDS011;2932;52.400;9.558;2023-02-03T04:04:22;12.10;;;6.40;;
5811;SDS011;2932;52.400;9.558;2023-02-03T04:06:51;9.47;;;5.90;;
5811;SDS011;2932;52.400;9.558;2023-02-03T04:09:17;8.83;;;5.43;;
5811;SDS011;2932;52.400;9.558;2023-02-03T04:11:42;8.60;;;5.00;;
5811;SDS011;2932;52.400;9.558;2023-02-03T04:14:27;13.80;;;6.00;;
5811;SDS011;2932;52.400;9.558;2023-02-03T04:16:54;11.73;;;6.00;;
5811;SDS011;2932;52.400;9.558;2023-02-03T04:19:19;9.10;;;5.77;;
5811;SDS011;2932;52.400;9.558;2023-02-03T04:21:45;10.47;;;5.30;;
5811;SDS011;2932;52.400;9.558;2023-02-03T04:24:10;11.13;;;5.60;;
5811;SDS011;2932;52.400;9.558;2023-02-03T04:26:36;10.00;;;5.60;;
5811;SDS011;2932;52.400;9.558;2023-02-03T04:29:01;10.57;;;5.70;;
5811;SDS011;2932;52.400;9.558;2023-02-03T04:31:27;10.03;;;4.80;;
5811;SDS011;2932;52.400;9.558;2023-02-03T04:33:52;9.90;;;4.63;;
5811;SDS011;2932;52.400;9.558;2023-02-03T04:36:18;13.27;;;5.73;;
5811;SDS011;2932;52.400;9.558;2023-02-03T04:38:43;7.03;;;4.40;;
5811;SDS011;2932;52.400;9.558;2023-02-03T04:41:08;10.87;;;5.53;;
5811;SDS011;2932;52.400;9.558;2023-02-03T04:43:33;9.80;;;5.37;;
5811;SDS011;2932;52.400;9.558;2023-02-03T04:45:59;9.23;;;5.40;;
5811;SDS011;2932;52.400;9.558;2023-02-03T04:48:25;10.53;;;4.93;;
5811;SDS011;2932;52.400;9.558;2023-02-03T04:50:50;8.67;;;4.77;;
5811;SDS011;2932;52.400;9.558;2023-02-03T04:53:16;9.50;;;5.70;;
5811;SDS011;2932;52.400;9.558;2023-02-03T04:55:44;9.00;;;5.03;;
5811;SDS011;2932;52.400;9.558;2023-02-03T04:58:11;11.57;;;4.77;;
5811;SDS011;2932;52.400;9.558;2023-02-03T05:00:36;6.53;;;4.73;;
5811;SDS011;2932;52.400;9.558;2023-02-03T05:03:02;10.50;;;4.67;;
5811;SDS011;2932;52.400;9.558;2023-02-03T05:05:27;6.47;;;4.00;;
5811;SDS011;2932;52.400;9.558;2023-02-03T05:07:52;10.43;;;4.30;;
5811;SDS011;2932;52.400;9.558;2023-02-03T05:10:18;5.10;;;3.60;;
5811;SDS011;2932;52.400;9.558;2023-02-03T05:12:43;5.83;;;3.73;;
5811;SDS011;2932;52.400;9.558;2023-02-03T05:15:09;6.63;;;4.43;;
5811;SDS011;2932;52.400;9.558;2023-02-03T05:17:34;9.60;;;4.70;;
5811;SDS011;2932;52.400;9.558;2023-02-03T05:20:04;11.77;;;4.83;;
5811;SDS011;2932;52.400;9.558;2023-02-03T05:22:30;9.57;;;3.73;;
5811;SDS011;2932;52.400;9.558;2023-02-03T05:24:55;8.27;;;3.87;;
5811;SDS011;2932;52.400;9.558;2023-02-03T05:27:21;10.57;;;4.00;;
5811;SDS011;2932;52.400;9.558;2023-02-03T05:29:46;7.47;;;4.00;;
5811;SDS011;2932;52.400;9.558;2023-02-03T05:32:11;8.27;;;3.70;;
5811;SDS011;2932;52.400;9.558;2023-02-03T05:34:37;9.07;;;3.90;;
5811;SDS011;2932;52.400;9.558;2023-02-03T05:37:02;7.87;;;4.33;;
5811;SDS011;2932;52.400;9.558;2023-02-03T05:39:28;7.23;;;3.27;;
5811;SDS011;2932;52.400;9.558;2023-02-03T05:41:53;5.07;;;3.43;;
5811;SDS011;2932;52.400;9.558;2023-02-03T05:44:19;7.50;;;3.77;;
5811;SDS011;2932;52.400;9.558;2023-02-03T05:46:45;7.70;;;3.27;;
5811;SDS011;2932;52.400;9.558;2023-02-03T05:49:11;7.47;;;3.90;;
5811;SDS011;2932;52.400;9.558;2023-02-03T05:51:37;5.70;;;3.27;;
5811;SDS011;2932;52.400;9.558;2023-02-03T05:54:03;7.80;;;3.80;;
5811;SDS011;2932;52.400;9.558;2023-02-03T05:56:29;7.23;;;3.27;;
5811;SDS011;2932;52.400;9.558;2023-02-03T05:58:54;9.33;;;4.17;;
5811;SDS011;2932;52.400;9.558;2023-02-03T06:01:20;4.63;;;3.10;;
5811;SDS011;2932;52.400;9.558;2023-02-03T06:03:45;9.43;;;3.37;;
5811;SDS011;2932;52.400;9.558;2023-02-03T06:06:11;5.17;;;3.63;;
5811;SDS011;2932;52.400;9.558;2023-02-03T06:08:36;7.23;;;3.50;;
5811;SDS011;2932;52.400;9.558;2023-02-03T06:11:02;6.20;;;3.33;;
5811;SDS011;2932;52.400;9.558;2023-02-03T06:13:27;4.57;;;3.00;;
5811;SDS011;2932;52.400;9.558;2023-02-03T06:15:52;5.30;;;2.93;;
5811;SDS011;2932;52.400;9.558;2023-02-03T06:18:18;9.63;;;3.90;;
5811;SDS011;2932;52.400;9.558;2023-02-03T06:20:43;9.10;;;3.87;;
5811;SDS011;2932;52.400;9.558;2023-02-03T06:23:09;6.60;;;3.80;;
5811;SDS011;2932;52.400;9.558;2023-02-03T06:25:34;8.23;;;3.40;;
5811;SDS011;2932;52.400;9.558;2023-02-03T06:27:59;11.90;;;3.60;;
5811;SDS011;2932;52.400;9.558;2023-02-03T06:30:25;5.57;;;3.20;;
5811;SDS011;2932;52.400;9.558;2023-02-03T06:32:50;10.60;;;3.47;;
5811;SDS011;2932;52.400;9.558;2023-02-03T06:35:16;10.10;;;4.30;;
5811;SDS011;2932;52.400;9.558;2023-02-03T06:37:42;8.20;;;3.50;;
5811;SDS011;2932;52.400;9.558;2023-02-03T06:40:08;10.80;;;3.53;;
5811;SDS011;2932;52.400;9.558;2023-02-03T06:42:34;7.10;;;3.63;;
5811;SDS011;2932;52.400;9.558;2023-02-03T06:45:00;6.63;;;4.00;;
5811;SDS011;2932;52.400;9.558;2023-02-03T06:47:25;7.33;;;3.90;;
5811;SDS011;2932;52.400;9.558;2023-02-03T06:49:50;8.43;;;4.47;;
5811;SDS011;2932;52.400;9.558;2023-02-03T06:52:16;7.10;;;3.23;;
5811;SDS011;2932;52.400;9.558;2023-02-03T06:54:42;7.97;;;4.03;;
5811;SDS011;2932;52.400;9.558;2023-02-03T06:57:07;7.87;;;4.27;;
5811;SDS011;2932;52.400;9.558;2023-02-03T06:59:32;6.70;;;3.93;;
5811;SDS011;2932;52.400;9.558;2023-02-03T07:01:58;6.70;;;4.20;;
5811;SDS011;2932;52.400;9.558;2023-02-03T07:04:23;5.80;;;3.90;;
5811;SDS011;2932;52.400;9.558;2023-02-03T07:06:48;5.37;;;3.53;;
5811;SDS011;2932;52.400;9.558;2023-02-03T07:09:14;7.60;;;4.33;;
5811;SDS011;2932;52.400;9.558;2023-02-03T07:11:40;9.97;;;5.23;;
5811;SDS011;2932;52.400;9.558;2023-02-03T07:14:05;6.47;;;4.40;;
5811;SDS011;2932;52.400;9.558;2023-02-03T07:16:31;8.13;;;4.13;;
5811;SDS011;2932;52.400;9.558;2023-02-03T07:18:58;10.43;;;4.60;;
5811;SDS011;2932;52.400;9.558;2023-02-03T07:21:24;5.90;;;4.13;;
5811;SDS011;2932;52.400;9.558;2023-02-03T07:23:49;6.67;;;4.80;;
5811;SDS011;2932;52.400;9.558;2023-02-03T07:26:15;12.47;;;4.83;;
5811;SDS011;2932;52.400;9.558;2023-02-03T07:28:41;4.83;;;4.17;;
5811;SDS011;2932;52.400;9.558;2023-02-03T07:31:07;4.53;;;3.77;;
5811;SDS011;2932;52.400;9.558;2023-02-03T07:33:34;9.00;;;5.10;;
5811;SDS011;2932;52.400;9.558;2023-02-03T07:36:00;5.77;;;3.90;;
5811;SDS011;2932;52.400;9.558;2023-02-03T07:38:27;5.90;;;4.53;;
5811;SDS011;2932;52.400;9.558;2023-02-03T07:40:53;7.00;;;4.90;;
5811;SDS011;2932;52.400;9.558;2023-02-03T07:43:19;8.90;;;5.13;;
5811;SDS011;2932;52.400;9.558;2023-02-03T07:45:45;7.70;;;4.97;;
5811;SDS011;2932;52.400;9.558;2023-02-03T07:48:10;6.27;;;4.33;;
5811;SDS011;2932;52.400;9.558;2023-02-03T07:50:36;5.07;;;3.40;;
5811;SDS011;2932;52.400;9.558;2023-02-03T07:53:02;9.43;;;5.27;;
5811;SDS011;2932;52.400;9.558;2023-02-03T07:55:28;6.07;;;4.57;;
5811;SDS011;2932;52.400;9.558;2023-02-03T07:57:54;7.23;;;4.40;;
5811;SDS011;2932;52.400;9.558;2023-02-03T08:00:20;5.63;;;4.43;;
5811;SDS011;2932;52.400;9.558;2023-02-03T08:02:46;6.83;;;4.97;;
5811;SDS011;2932;52.400;9.558;2023-02-03T08:05:12;7.67;;;4.20;;
5811;SDS011;2932;52.400;9.558;2023-02-03T08:07:38;5.47;;;4.00;;
5811;SDS011;2932;52.400;9.558;2023-02-03T08:10:04;10.53;;;4.93;;
5811;SDS011;2932;52.400;9.558;2023-02-03T08:12:29;11.23;;;5.60;;
5811;SDS011;2932;52.400;9.558;2023-02-03T08:14:55;7.13;;;5.07;;
5811;SDS011;2932;52.400;9.558;2023-02-03T08:17:20;6.80;;;4.37;;
5811;SDS011;2932;52.400;9.558;2023-02-03T08:19:46;7.37;;;4.30;;
5811;SDS011;2932;52.400;9.558;2023-02-03T08:22:11;9.27;;;4.33;;
5811;SDS011;2932;52.400;9.558;2023-02-03T08:24:40;9.20;;;4.50;;
5811;SDS011;2932;52.400;9.558;2023-02-03T08:27:09;8.70;;;4.37;;
5811;SDS011;2932;52.400;9.558;2023-02-03T08:29:35;7.20;;;4.57;;
5811;SDS011;2932;52.400;9.558;2023-02-03T08:32:00;7.83;;;3.73;;
5811;SDS011;2932;52.400;9.558;2023-02-03T08:34:26;13.00;;;4.30;;
5811;SDS011;2932;52.400;9.558;2023-02-03T08:36:51;8.70;;;4.20;;
5811;SDS011;2932;52.400;9.558;2023-02-03T08:39:16;8.97;;;4.00;;
5811;SDS011;2932;52.400;9.558;2023-02-03T08:41:41;10.63;;;5.17;;
5811;SDS011;2932;52.400;9.558;2023-02-03T08:44:07;11.00;;;5.37;;
5811;SDS011;2932;52.400;9.558;2023-02-03T08:46:32;8.33;;;4.47;;
5811;SDS011;2932;52.400;9.558;2023-02-03T08:48:59;8.30;;;5.50;;
5811;SDS011;2932;52.400;9.558;2023-02-03T08:51:26;9.90;;;4.70;;
5811;SDS011;2932;52.400;9.558;2023-02-03T08:53:52;7.03;;;4.03;;
5811;SDS011;2932;52.400;9.558;2023-02-03T08:56:17;6.80;;;4.57;;
5811;SDS011;2932;52.400;9.558;2023-02-03T08:58:43;6.77;;;4.13;;
5811;SDS011;2932;52.400;9.558;2023-02-03T09:01:09;7.90;;;4.50;;
5811;SDS011;2932;52.400;9.558;2023-02-03T09:03:36;10.17;;;4.37;;
5811;SDS011;2932;52.400;9.558;2023-02-03T09:06:02;8.37;;;4.40;;
5811;SDS011;2932;52.400;9.558;2023-02-03T09:08:29;9.40;;;3.73;;
5811;SDS011;2932;52.400;9.558;2023-02-03T09:10:54;9.77;;;4.07;;
5811;SDS011;2932;52.400;9.558;2023-02-03T09:13:20;12.83;;;3.53;;
5811;SDS011;2932;52.400;9.558;2023-02-03T09:15:45;5.17;;;3.00;;
5811;SDS011;2932;52.400;9.558;2023-02-03T09:18:11;4.97;;;2.37;;
5811;SDS011;2932;52.400;9.558;2023-02-03T09:20:36;11.67;;;3.67;;
5811;SDS011;2932;52.400;9.558;2023-02-03T09:23:01;5.67;;;3.17;;
5811;SDS011;2932;52.400;9.558;2023-02-03T09:25:27;8.80;;;3.03;;
5811;SDS011;2932;52.400;9.558;2023-02-03T09:27:52;8.23;;;2.70;;
5811;SDS011;2932;52.400;9.558;2023-02-03T09:30:17;14.63;;;3.77;;
5811;SDS011;2932;52.400;9.558;2023-02-03T09:32:43;5.23;;;2.83;;
5811;SDS011;2932;52.400;9.558;2023-02-03T09:35:12;6.37;;;2.70;;
5811;SDS011;2932;52.400;9.558;2023-02-03T09:37:38;8.20;;;3.13;;
5811;SDS011;2932;52.400;9.558;2023-02-03T09:40:03;5.43;;;3.13;;
5811;SDS011;2932;52.400;9.558;2023-02-03T09:45:19;6.00;;;2.23;;
5811;SDS011;2932;52.400;9.558;2023-02-03T09:47:50;5.13;;;2.30;;
5811;SDS011;2932;52.400;9.558;2023-02-03T09:50:20;7.23;;;2.23;;
5811;SDS011;2932;52.400;9.558;2023-02-03T09:52:49;10.33;;;2.87;;
5811;SDS011;2932;52.400;9.558;2023-02-03T10:00:50;7.93;;;3.07;;
5811;SDS011;2932;52.400;9.558;2023-02-03T10:03:26;10.87;;;3.57;;
5811;SDS011;2932;52.400;9.558;2023-02-03T10:20:25;4.93;;;1.83;;
5811;SDS011;2932;52.400;9.558;2023-02-03T10:23:10;4.97;;;1.80;;
5811;SDS011;2932;52.400;9.558;2023-02-03T10:28:13;7.53;;;1.77;;
5811;SDS011;2932;52.400;9.558;2023-02-03T10:30:43;8.03;;;2.17;;
5811;SDS011;2932;52.400;9.558;2023-02-03T10:33:20;4.63;;;1.83;;
5811;SDS011;2932;52.400;9.558;2023-02-03T10:35:50;10.30;;;1.50;;
5811;SDS011;2932;52.400;9.558;2023-02-03T10:38:42;4.73;;;1.63;;
5811;SDS011;2932;52.400;9.558;2023-02-03T10:41:09;5.93;;;1.17;;
5811;SDS011;2932;52.400;9.558;2023-02-03T10:43:34;4.43;;;1.50;;
5811;SDS011;2932;52.400;9.558;2023-02-03T10:46:15;9.37;;;2.23;;
5811;SDS011;2932;52.400;9.558;2023-02-03T10:48:43;4.10;;;1.07;;
5811;SDS011;2932;52.400;9.558;2023-02-03T10:51:19;5.90;;;1.33;;
5811;SDS011;2932;52.400;9.558;2023-02-03T10:53:47;6.17;;;1.33;;
5811;SDS011;2932;52.400;9.558;2023-02-03T10:56:16;6.20;;;1.30;;
5811;SDS011;2932;52.400;9.558;2023-02-03T10:58:54;6.80;;;1.60;;
5811;SDS011;2932;52.400;9.558;2023-02-03T11:01:24;6.70;;;2.07;;
5811;SDS011;2932;52.400;9.558;2023-02-03T11:04:01;7.50;;;1.47;;
5811;SDS011;2932;52.400;9.558;2023-02-03T11:06:29;11.03;;;2.53;;
5811;SDS011;2932;52.400;9.558;2023-02-03T11:08:55;6.07;;;1.63;;
5811;SDS011;2932;52.400;9.558;2023-02-03T11:11:27;5.30;;;1.87;;
5811;SDS011;2932;52.400;9.558;2023-02-03T11:16:26;8.27;;;2.07;;
5811;SDS011;2932;52.400;9.558;2023-02-03T11:18:58;5.60;;;1.80;;
5811;SDS011;2932;52.400;9.558;2023-02-03T11:27:10;11.57;;;2.07;;
5811;SDS011;2932;52.400;9.558;2023-02-03T11:29:39;10.70;;;2.40;;
5811;SDS011;2932;52.400;9.558;2023-02-03T11:34:57;13.77;;;2.23;;
5811;SDS011;2932;52.400;9.558;2023-02-03T11:37:44;9.60;;;2.07;;
5811;SDS011;2932;52.400;9.558;2023-02-03T11:40:13;14.37;;;3.27;;
5811;SDS011;2932;52.400;9.558;2023-02-03T12:07:57;11.57;;;2.50;;
5811;SDS011;2932;52.400;9.558;2023-02-03T12:13:20;11.67;;;3.13;;
5811;SDS011;2932;52.400;9.558;2023-02-03T12:19:29;17.20;;;2.70;;
5811;SDS011;2932;52.400;9.558;2023-02-03T12:22:28;12.90;;;2.67;;
5811;SDS011;2932;52.400;9.558;2023-02-03T12:30:41;22.43;;;3.90;;
5811;SDS011;2932;52.400;9.558;2023-02-03T12:33:26;14.73;;;2.73;;
5811;SDS011;2932;52.400;9.558;2023-02-03T12:35:58;13.83;;;2.73;;
5811;SDS011;2932;52.400;9.558;2023-02-03T12:38:33;18.03;;;2.70;;
5811;SDS011;2932;52.400;9.558;2023-02-03T12:41:06;10.90;;;2.23;;
5811;SDS011;2932;52.400;9.558;2023-02-03T12:43:37;13.23;;;2.67;;
5811;SDS011;2932;52.400;9.558;2023-02-03T12:48:41;10.97;;;2.63;;
5811;SDS011;2932;52.400;9.558;2023-02-03T12:54:01;11.13;;;2.23;;
5811;SDS011;2932;52.400;9.558;2023-02-03T12:56:46;12.60;;;1.83;;
5811;SDS011;2932;52.400;9.558;2023-02-03T12:59:19;8.27;;;1.83;;
5811;SDS011;2932;52.400;9.558;2023-02-03T13:01:57;14.33;;;2.60;;
5811;SDS011;2932;52.400;9.558;2023-02-03T13:09:59;15.17;;;2.37;;
5811;SDS011;2932;52.400;9.558;2023-02-03T13:18:04;13.43;;;2.57;;
5811;SDS011;2932;52.400;9.558;2023-02-03T13:20:39;12.60;;;2.60;;
5811;SDS011;2932;52.400;9.558;2023-02-03T13:23:05;12.90;;;2.47;;
5811;SDS011;2932;52.400;9.558;2023-02-03T13:36:24;13.83;;;2.73;;
5811;SDS011;2932;52.400;9.558;2023-02-03T13:39:16;7.27;;;1.90;;
5811;SDS011;2932;52.400;9.558;2023-02-03T13:41:53;15.50;;;3.33;;
5811;SDS011;2932;52.400;9.558;2023-02-03T13:44:32;12.60;;;2.60;;
5811;SDS011;2932;52.400;9.558;2023-02-03T13:46:58;11.97;;;2.53;;
5811;SDS011;2932;52.400;9.558;2023-02-03T13:49:29;14.27;;;2.10;;
5811;SDS011;2932;52.400;9.558;2023-02-03T13:51:58;13.60;;;3.20;;
5811;SDS011;2932;52.400;9.558;2023-02-03T13:54:26;10.80;;;2.00;;
5811;SDS011;2932;52.400;9.558;2023-02-03T13:56:59;12.57;;;2.53;;
5811;SDS011;2932;52.400;9.558;2023-02-03T14:09:54;10.20;;;2.23;;
5811;SDS011;2932;52.400;9.558;2023-02-03T14:14:55;14.73;;;3.47;;
5811;SDS011;2932;52.400;9.558;2023-02-03T14:19:59;10.73;;;2.57;;
5811;SDS011;2932;52.400;9.558;2023-02-03T14:22:25;15.13;;;2.23;;
5811;SDS011;2932;52.400;9.558;2023-02-03T14:24:51;14.20;;;3.00;;
5811;SDS011;2932;52.400;9.558;2023-02-03T14:27:22;15.83;;;2.53;;
5811;SDS011;2932;52.400;9.558;2023-02-03T14:38:09;10.10;;;1.83;;
5811;SDS011;2932;52.400;9.558;2023-02-03T15:00:24;15.40;;;2.97;;
5811;SDS011;2932;52.400;9.558;2023-02-03T15:05:40;13.70;;;2.53;;
5811;SDS011;2932;52.400;9.558;2023-02-03T15:13:50;12.67;;;2.40;;
5811;SDS011;2932;52.400;9.558;2023-02-03T15:16:20;12.60;;;2.27;;
5811;SDS011;2932;52.400;9.558;2023-02-03T15:18:57;17.23;;;3.10;;
5811;SDS011;2932;52.400;9.558;2023-02-03T15:21:24;6.97;;;2.10;;
5811;SDS011;2932;52.400;9.558;2023-02-03T15:23:50;16.27;;;3.13;;
5811;SDS011;2932;52.400;9.558;2023-02-03T15:26:22;13.80;;;2.60;;
5811;SDS011;2932;52.400;9.558;2023-02-03T15:29:02;12.63;;;2.23;;
5811;SDS011;2932;52.400;9.558;2023-02-03T15:34:24;19.50;;;2.30;;
5811;SDS011;2932;52.400;9.558;2023-02-03T15:36:54;12.67;;;2.63;;
5811;SDS011;2932;52.400;9.558;2023-02-03T15:39:32;12.97;;;1.97;;
5811;SDS011;2932;52.400;9.558;2023-02-03T15:42:07;15.13;;;2.80;;
5811;SDS011;2932;52.400;9.558;2023-02-03T15:44:40;16.77;;;4.00;;
5811;SDS011;2932;52.400;9.558;2023-02-03T15:47:22;15.67;;;2.60;;
5811;SDS011;2932;52.400;9.558;2023-02-03T15:49:56;10.13;;;2.30;;
5811;SDS011;2932;52.400;9.558;2023-02-03T15:52:41;17.30;;;2.40;;
5811;SDS011;2932;52.400;9.558;2023-02-03T15:55:15;19.87;;;3.10;;
5811;SDS011;2932;52.400;9.558;2023-02-03T15:57:49;13.97;;;2.27;;
5811;SDS011;2932;52.400;9.558;2023-02-03T16:00:34;18.13;;;2.53;;
5811;SDS011;2932;52.400;9.558;2023-02-03T16:03:04;19.47;;;3.77;;
5811;SDS011;2932;52.400;9.558;2023-02-03T16:05:39;14.47;;;2.40;;
5811;SDS011;2932;52.400;9.558;2023-02-03T16:08:25;17.03;;;2.50;;
5811;SDS011;2932;52.400;9.558;2023-02-03T16:13:51;14.87;;;2.77;;
5811;SDS011;2932;52.400;9.558;2023-02-03T16:16:29;14.93;;;3.17;;
5811;SDS011;2932;52.400;9.558;2023-02-03T16:19:03;22.33;;;3.63;;
5811;SDS011;2932;52.400;9.558;2023-02-03T16:21:32;14.77;;;3.00;;
5811;SDS011;2932;52.400;9.558;2023-02-03T16:24:00;15.97;;;3.43;;
5811;SDS011;2932;52.400;9.558;2023-02-03T16:26:30;17.40;;;2.90;;
5811;SDS011;2932;52.400;9.558;2023-02-03T16:29:03;20.27;;;3.23;;
5811;SDS011;2932;52.400;9.558;2023-02-03T16:31:54;18.13;;;3.27;;
5811;SDS011;2932;52.400;9.558;2023-02-03T16:34:38;11.13;;;3.30;;
5811;SDS011;2932;52.400;9.558;2023-02-03T16:37:33;20.40;;;3.20;;
5811;SDS011;2932;52.400;9.558;2023-02-03T16:40:25;20.23;;;3.30;;
5811;SDS011;2932;52.400;9.558;2023-02-03T16:43:13;21.67;;;3.77;;
5811;SDS011;2932;52.400;9.558;2023-02-03T16:45:59;22.37;;;3.57;;
5811;SDS011;2932;52.400;9.558;2023-02-03T16:48:43;13.10;;;2.90;;
5811;SDS011;2932;52.400;9.558;2023-02-03T16:51:32;15.73;;;2.50;;
5811;SDS011;2932;52.400;9.558;2023-02-03T16:54:01;12.53;;;2.90;;
5811;SDS011;2932;52.400;9.558;2023-02-03T16:56:27;17.23;;;3.57;;
5811;SDS011;2932;52.400;9.558;2023-02-03T16:58:52;14.23;;;2.70;;
5811;SDS011;2932;52.400;9.558;2023-02-03T17:01:17;17.67;;;2.77;;
5811;SDS011;2932;52.400;9.558;2023-02-03T17:03:43;12.77;;;2.80;;
5811;SDS011;2932;52.400;9.558;2023-02-03T17:06:08;14.67;;;2.70;;
5811;SDS011;2932;52.400;9.558;2023-02-03T17:08:35;14.50;;;2.63;;
5811;SDS011;2932;52.400;9.558;2023-02-03T17:11:03;16.63;;;2.93;;
5811;SDS011;2932;52.400;9.558;2023-02-03T17:13:42;15.87;;;3.07;;
5811;SDS011;2932;52.400;9.558;2023-02-03T17:16:18;11.43;;;2.30;;
5811;SDS011;2932;52.400;9.558;2023-02-03T17:18:46;16.83;;;2.83;;
5811;SDS011;2932;52.400;9.558;2023-02-03T17:21:17;22.87;;;2.70;;
5811;SDS011;2932;52.400;9.558;2023-02-03T17:23:44;17.97;;;3.83;;
5811;SDS011;2932;52.400;9.558;2023-02-03T17:26:09;17.13;;;3.40;;
5811;SDS011;2932;52.400;9.558;2023-02-03T17:28:35;14.93;;;4.60;;
5811;SDS011;2932;52.400;9.558;2023-02-03T17:31:04;20.83;;;4.47;;
5811;SDS011;2932;52.400;9.558;2023-02-03T17:33:30;21.63;;;6.83;;
5811;SDS011;2932;52.400;9.558;2023-02-03T17:38:25;15.40;;;3.23;;
5811;SDS011;2932;52.400;9.558;2023-02-03T17:40:50;21.87;;;3.10;;
5811;SDS011;2932;52.400;9.558;2023-02-03T17:43:15;17.13;;;3.67;;
5811;SDS011;2932;52.400;9.558;2023-02-03T17:45:41;15.53;;;3.33;;
5811;SDS011;2932;52.400;9.558;2023-02-03T17:48:07;17.50;;;3.47;;
5811;SDS011;2932;52.400;9.558;2023-02-03T17:50:33;21.77;;;3.47;;
5811;SDS011;2932;52.400;9.558;2023-02-03T17:52:58;19.13;;;3.80;;
5811;SDS011;2932;52.400;9.558;2023-02-03T17:55:24;17.00;;;3.60;;
5811;SDS011;2932;52.400;9.558;2023-02-03T17:57:49;18.20;;;3.57;;
5811;SDS011;2932;52.400;9.558;2023-02-03T18:00:15;12.97;;;2.67;;
5811;SDS011;2932;52.400;9.558;2023-02-03T18:02:41;15.67;;;2.77;;
5811;SDS011;2932;52.400;9.558;2023-02-03T18:05:07;24.20;;;3.70;;
5811;SDS011;2932;52.400;9.558;2023-02-03T18:07:32;15.97;;;3.10;;
5811;SDS011;2932;52.400;9.558;2023-02-03T18:09:58;23.77;;;4.50;;
5811;SDS011;2932;52.400;9.558;2023-02-03T18:12:23;16.43;;;4.13;;
5811;SDS011;2932;52.400;9.558;2023-02-03T18:14:48;11.10;;;3.10;;
5811;SDS011;2932;52.400;9.558;2023-02-03T18:17:14;17.20;;;3.63;;